createdAt,value
2022-10-22T00:02:43.858Z,22.34
2022-10-22T00:07:45.805Z,22.32
2022-10-22T00:12:47.703Z,22.29
2022-10-22T00:17:49.905Z,22.28
2022-10-22T00:27:59.227Z,22.23
2022-10-22T00:33:01.120Z,22.19
2022-10-22T00:38:03.015Z,22.15
2022-10-22T00:43:05.071Z,22.14
2022-10-22T00:48:17.563Z,22.09
2022-10-22T00:53:33.211Z,22.00
2022-10-22T00:58:40.442Z,21.92
2022-10-22T01:05:14.458Z,21.85
2022-10-22T01:10:17.262Z,21.80
2022-10-22T01:15:22.000Z,21.77
2022-10-22T01:20:52.007Z,21.71
2022-10-22T01:26:00.578Z,21.67
2022-10-22T01:31:09.536Z,21.65
2022-10-22T01:36:14.811Z,21.60
2022-10-22T01:41:17.210Z,21.60
2022-10-22T01:46:21.484Z,21.58
2022-10-22T01:51:26.323Z,21.56
2022-10-22T01:57:00.225Z,21.50
2022-10-22T02:02:29.536Z,21.47
2022-10-22T02:07:37.557Z,21.44
2022-10-22T02:12:42.694Z,21.39
2022-10-22T02:17:47.348Z,21.35
2022-10-22T02:22:50.190Z,21.29
2022-10-22T02:28:02.621Z,21.23
2022-10-22T02:33:21.708Z,21.19
2022-10-22T02:38:26.521Z,21.14
2022-10-22T02:43:29.704Z,21.09
2022-10-22T02:48:31.629Z,21.07
2022-10-22T02:53:33.663Z,21.05
2022-10-22T02:58:35.630Z,21.01
2022-10-22T03:07:25.097Z,20.95
2022-10-22T03:12:27.034Z,20.90
2022-10-22T03:17:28.974Z,20.86
2022-10-22T03:22:35.054Z,20.85
2022-10-22T03:27:39.242Z,20.83
2022-10-22T03:32:41.423Z,20.78
2022-10-22T03:37:43.606Z,20.73
2022-10-22T03:42:45.882Z,20.70
2022-10-22T03:47:47.775Z,20.67
2022-10-22T03:58:21.388Z,20.59
2022-10-22T04:03:23.297Z,20.55
2022-10-22T04:08:25.303Z,20.52
2022-10-22T04:13:27.325Z,20.51
2022-10-22T04:18:29.466Z,20.50
2022-10-22T04:23:31.362Z,20.50
2022-10-22T04:28:36.467Z,20.49
2022-10-22T04:33:38.880Z,20.47
2022-10-22T04:38:42.651Z,20.43
2022-10-22T04:43:45.138Z,20.39
2022-10-22T04:48:47.881Z,20.33
2022-10-22T04:53:53.164Z,20.30
2022-10-22T04:59:00.554Z,20.27
2022-10-22T05:04:04.166Z,20.23
2022-10-22T05:09:13.700Z,20.21
2022-10-22T05:14:24.256Z,20.18
2022-10-22T05:19:28.438Z,20.15
2022-10-22T05:24:33.465Z,20.12
2022-10-22T05:29:35.670Z,20.06
2022-10-22T05:34:37.888Z,20.05
2022-10-22T05:39:41.758Z,20.06
2022-10-22T05:44:43.638Z,20.04
2022-10-22T05:49:45.607Z,20.00
2022-10-22T05:54:47.547Z,19.98
2022-10-22T05:59:50.119Z,19.97
2022-10-22T06:04:52.503Z,19.93
2022-10-22T06:09:54.670Z,19.92
2022-10-22T06:14:56.556Z,19.89
2022-10-22T06:20:02.185Z,19.86
2022-10-22T06:25:06.316Z,19.84
2022-10-22T06:30:09.174Z,19.82
2022-10-22T06:35:13.729Z,19.80
2022-10-22T06:40:16.506Z,19.79
2022-10-22T06:45:18.732Z,19.79
2022-10-22T06:50:20.736Z,19.76
2022-10-22T06:55:22.719Z,19.90
2022-10-22T07:00:24.812Z,19.96
2022-10-22T07:05:26.917Z,20.03
2022-10-22T07:10:30.670Z,20.09
2022-10-22T07:15:32.812Z,20.18
2022-10-22T07:20:34.828Z,20.26
2022-10-22T07:25:37.099Z,20.34
2022-10-22T07:30:39.864Z,20.44
2022-10-22T07:35:42.551Z,20.55
2022-10-22T07:40:44.609Z,20.56
2022-10-22T07:45:47.615Z,20.59
2022-10-22T07:50:51.829Z,20.65
2022-10-22T07:55:54.682Z,20.70
2022-10-22T08:01:03.068Z,20.76
2022-10-22T08:06:05.459Z,20.82
2022-10-22T08:11:10.417Z,20.92
2022-10-22T08:16:12.617Z,21.05
2022-10-22T08:21:17.993Z,21.16
2022-10-22T08:26:19.974Z,21.30
2022-10-22T08:31:30.983Z,21.54
2022-10-22T08:36:32.874Z,21.71
2022-10-22T08:41:51.257Z,21.84
2022-10-22T08:47:28.998Z,21.89
2022-10-22T08:52:44.605Z,22.02
2022-10-22T08:57:56.497Z,22.20
2022-10-22T09:03:16.980Z,22.40
2022-10-22T09:08:20.804Z,22.58
2022-10-22T09:13:24.480Z,22.66
2022-10-22T09:18:47.632Z,22.74
2022-10-22T09:24:14.736Z,22.78
2022-10-22T09:29:24.587Z,22.76
2022-10-22T09:34:28.380Z,22.80
2022-10-22T09:39:39.753Z,22.84
2022-10-22T09:44:49.251Z,22.90
2022-10-22T09:50:07.200Z,22.98
2022-10-22T09:55:18.508Z,23.30
2022-10-22T10:00:25.560Z,23.79
2022-10-22T10:05:31.789Z,24.27
2022-10-22T10:10:50.311Z,24.50
2022-10-22T10:16:09.141Z,24.67
2022-10-22T10:21:19.836Z,24.62
2022-10-22T10:26:32.022Z,24.59
2022-10-22T10:31:34.053Z,24.75
2022-10-22T10:37:04.743Z,24.96
2022-10-22T10:42:28.525Z,25.18
2022-10-22T10:48:01.172Z,25.35
2022-10-22T10:53:26.765Z,25.48
2022-10-22T10:58:48.873Z,25.50
2022-10-22T11:04:05.359Z,25.68
2022-10-22T11:09:23.386Z,25.84
2022-10-22T11:14:54.029Z,26.03
2022-10-22T11:20:08.156Z,26.30
2022-10-22T11:25:19.661Z,26.57
2022-10-22T11:30:30.059Z,26.74
2022-10-22T11:35:35.822Z,26.90
2022-10-22T11:41:07.341Z,26.99
2022-10-22T11:46:26.546Z,27.13
2022-10-22T11:51:32.504Z,27.25
2022-10-22T11:56:39.440Z,27.46
2022-10-22T12:01:43.320Z,27.52
2022-10-22T12:07:01.058Z,27.45
2022-10-22T12:12:12.777Z,27.31
2022-10-22T12:17:16.306Z,27.25
2022-10-22T12:22:35.763Z,27.27
2022-10-22T12:27:51.390Z,27.31
2022-10-22T12:33:08.467Z,27.27
2022-10-22T12:38:15.832Z,27.31
2022-10-22T12:43:20.474Z,27.35
2022-10-22T12:48:24.568Z,27.33
2022-10-22T12:53:35.158Z,27.24
2022-10-22T12:58:59.267Z,27.37
2022-10-22T13:04:28.636Z,27.48
2022-10-22T13:09:41.019Z,27.41
2022-10-22T13:14:45.687Z,27.24
2022-10-22T13:19:54.102Z,27.15
2022-10-22T13:30:09.778Z,26.78
2022-10-22T13:35:18.939Z,26.70
2022-10-22T13:40:21.315Z,26.69
2022-10-22T13:45:23.603Z,26.75
2022-10-22T13:50:25.725Z,26.63
2022-10-22T13:55:30.319Z,26.53
2022-10-22T14:00:32.672Z,26.56
2022-10-22T14:05:41.418Z,26.51
2022-10-22T14:10:43.426Z,26.48
2022-10-22T14:15:48.340Z,26.45
2022-10-22T14:20:53.077Z,26.43
2022-10-22T14:25:56.093Z,26.38
2022-10-22T14:31:05.606Z,26.22
2022-10-22T14:36:09.372Z,25.96
2022-10-22T14:41:20.964Z,25.79
2022-10-22T14:46:23.102Z,25.68
2022-10-22T14:51:25.156Z,25.70
2022-10-22T14:56:27.181Z,25.63
2022-10-22T15:01:29.313Z,25.50
2022-10-22T15:06:32.681Z,25.51
2022-10-22T15:11:35.556Z,25.47
2022-10-22T15:16:37.540Z,25.29
2022-10-22T15:21:39.687Z,25.14
2022-10-22T15:26:56.214Z,25.01
2022-10-22T15:31:59.566Z,24.82
2022-10-22T15:37:07.521Z,24.75
2022-10-22T15:42:10.107Z,24.58
2022-10-22T15:47:12.254Z,24.49
2022-10-22T15:52:14.286Z,24.42
2022-10-22T15:57:16.358Z,24.39
2022-10-22T16:02:18.280Z,24.38
2022-10-22T16:07:23.906Z,24.32
2022-10-22T16:12:33.407Z,24.25
2022-10-22T16:17:35.478Z,24.21
2022-10-22T16:22:37.748Z,24.18
2022-10-22T16:27:39.934Z,24.12
2022-10-22T16:32:42.819Z,24.09
2022-10-22T16:37:45.033Z,24.06
2022-10-22T16:42:47.521Z,24.06
2022-10-22T16:47:49.707Z,24.02
2022-10-22T16:52:51.704Z,23.97
2022-10-22T16:57:53.730Z,23.88
2022-10-22T17:02:56.344Z,23.81
2022-10-22T17:07:58.288Z,23.73
2022-10-22T17:13:00.231Z,23.67
2022-10-22T17:18:05.671Z,23.63
2022-10-22T17:23:10.779Z,23.60
2022-10-22T17:28:12.767Z,23.57
2022-10-22T17:33:14.757Z,23.57
2022-10-22T17:38:16.799Z,23.56
2022-10-22T17:43:24.790Z,23.57
2022-10-22T17:48:52.631Z,23.57
2022-10-22T17:53:56.583Z,23.55
2022-10-22T17:59:01.626Z,23.52
2022-10-22T18:04:06.588Z,23.51
2022-10-22T18:09:13.269Z,23.49
2022-10-22T18:14:22.674Z,23.49
2022-10-22T18:19:31.589Z,23.47
2022-10-22T18:24:37.268Z,23.47
2022-10-22T18:29:39.172Z,23.41
2022-10-22T18:34:41.418Z,23.40
2022-10-22T18:39:43.571Z,23.34
2022-10-22T18:44:45.488Z,23.31
2022-10-22T18:49:48.788Z,23.29
2022-10-22T18:54:54.531Z,23.28
2022-10-22T18:59:59.273Z,23.25
2022-10-22T19:05:01.618Z,23.24
2022-10-22T19:10:04.297Z,23.24
2022-10-22T19:15:07.539Z,23.23
2022-10-22T19:20:10.152Z,23.20
2022-10-22T19:25:12.266Z,23.21
2022-10-22T19:30:14.644Z,23.19
2022-10-22T19:35:16.936Z,23.19
2022-10-22T19:40:25.810Z,23.19
2022-10-22T19:45:27.888Z,23.18
2022-10-22T19:50:29.885Z,23.15
2022-10-22T19:55:32.075Z,23.16
2022-10-22T20:00:36.021Z,23.14
2022-10-22T20:05:39.014Z,23.14
2022-10-22T20:10:49.073Z,23.11
2022-10-22T20:15:53.583Z,23.11
2022-10-22T20:20:55.567Z,23.05
2022-10-22T20:25:57.582Z,22.98
2022-10-22T20:30:59.757Z,22.91
2022-10-22T20:36:09.324Z,22.83
2022-10-22T20:41:14.876Z,22.76
2022-10-22T20:46:19.575Z,22.70
2022-10-22T20:51:21.561Z,22.68
2022-10-22T20:56:24.245Z,22.66
2022-10-22T21:01:28.545Z,22.64
2022-10-22T21:06:30.626Z,22.57
2022-10-22T21:11:33.270Z,22.50
2022-10-22T21:16:35.231Z,22.42
2022-10-22T21:21:37.609Z,22.33
2022-10-22T21:26:41.967Z,22.25
2022-10-22T21:31:43.967Z,22.20
2022-10-22T21:36:53.015Z,22.11
2022-10-22T21:41:55.142Z,22.13
2022-10-22T21:46:57.512Z,22.06
2022-10-22T21:52:00.339Z,22.01
2022-10-22T21:57:02.183Z,21.98
2022-10-22T22:02:05.829Z,21.94
2022-10-22T22:07:08.106Z,21.90
2022-10-22T22:12:13.020Z,21.89
2022-10-22T22:17:16.599Z,21.87
2022-10-22T22:22:18.719Z,21.86
2022-10-22T22:32:27.486Z,21.83
2022-10-22T22:37:29.553Z,21.79
2022-10-22T22:42:31.516Z,21.79
2022-10-22T22:47:33.787Z,21.77
2022-10-22T22:52:39.233Z,21.76
2022-10-22T22:57:41.262Z,21.78
2022-10-22T23:02:43.702Z,21.77
2022-10-22T23:07:45.850Z,21.77
2022-10-22T23:12:47.711Z,21.78
2022-10-22T23:17:50.245Z,21.77
2022-10-22T23:22:52.248Z,21.78
2022-10-22T23:27:54.158Z,21.77
2022-10-22T23:32:56.189Z,21.74
2022-10-22T23:37:58.070Z,21.70
2022-10-22T23:43:01.157Z,21.70
2022-10-22T23:48:03.342Z,21.65
2022-10-22T23:53:05.473Z,21.59
2022-10-22T23:58:07.707Z,21.56
